sensor_id;sensor_type;location;lat;lon;timestamp;temperature;humidity
53748;DHT22;39655;53.210;5.768;2022-12-29T00:00:02;9.70;96.90
53748;DHT22;39655;53.210;5.768;2022-12-29T00:02:29;9.70;97.00
53748;DHT22;39655;53.210;5.768;2022-12-29T00:04:54;9.70;97.00
53748;DHT22;39655;53.210;5.768;2022-12-29T00:07:20;9.70;97.00
53748;DHT22;39655;53.210;5.768;2022-12-29T00:09:46;9.70;97.00
53748;DHT22;39655;53.210;5.768;2022-12-29T00:12:11;9.70;97.10
53748;DHT22;39655;53.210;5.768;2022-12-29T00:14:37;9.60;97.00
53748;DHT22;39655;53.210;5.768;2022-12-29T00:17:21;9.60;96.90
53748;DHT22;39655;53.210;5.768;2022-12-29T00:19:47;9.60;96.90
53748;DHT22;39655;53.210;5.768;2022-12-29T00:22:31;9.50;96.90
53748;DHT22;39655;53.210;5.768;2022-12-29T00:25:15;9.50;96.90
53748;DHT22;39655;53.210;5.768;2022-12-29T00:28:00;9.60;97.00
53748;DHT22;39655;53.210;5.768;2022-12-29T00:30:48;9.50;96.90
53748;DHT22;39655;53.210;5.768;2022-12-29T00:33:33;9.50;97.00
53748;DHT22;39655;53.210;5.768;2022-12-29T00:36:22;9.50;97.00
53748;DHT22;39655;53.210;5.768;2022-12-29T00:38:53;9.60;97.00
53748;DHT22;39655;53.210;5.768;2022-12-29T00:41:39;9.60;97.00
53748;DHT22;39655;53.210;5.768;2022-12-29T00:44:23;9.50;97.00
53748;DHT22;39655;53.210;5.768;2022-12-29T00:46:49;9.50;97.00
53748;DHT22;39655;53.210;5.768;2022-12-29T00:49:15;9.50;96.90
53748;DHT22;39655;53.210;5.768;2022-12-29T00:52:08;9.50;96.90
53748;DHT22;39655;53.210;5.768;2022-12-29T00:54:36;9.50;96.80
53748;DHT22;39655;53.210;5.768;2022-12-29T00:57:03;9.50;96.80
53748;DHT22;39655;53.210;5.768;2022-12-29T00:59:29;9.60;96.80
53748;DHT22;39655;53.210;5.768;2022-12-29T01:01:55;9.50;96.80
53748;DHT22;39655;53.210;5.768;2022-12-29T01:04:23;9.50;96.80
53748;DHT22;39655;53.210;5.768;2022-12-29T01:06:49;9.60;96.80
53748;DHT22;39655;53.210;5.768;2022-12-29T01:09:15;9.60;96.70
53748;DHT22;39655;53.210;5.768;2022-12-29T01:12:00;9.60;96.70
53748;DHT22;39655;53.210;5.768;2022-12-29T01:14:26;9.60;96.60
53748;DHT22;39655;53.210;5.768;2022-12-29T01:16:52;9.60;96.50
53748;DHT22;39655;53.210;5.768;2022-12-29T01:19:19;9.60;96.60
53748;DHT22;39655;53.210;5.768;2022-12-29T01:21:45;9.60;96.60
53748;DHT22;39655;53.210;5.768;2022-12-29T01:24:11;9.60;96.60
53748;DHT22;39655;53.210;5.768;2022-12-29T01:26:38;9.60;96.60
53748;DHT22;39655;53.210;5.768;2022-12-29T01:29:04;9.60;96.70
53748;DHT22;39655;53.210;5.768;2022-12-29T01:31:29;9.60;96.70
53748;DHT22;39655;53.210;5.768;2022-12-29T01:33:55;9.60;96.90
53748;DHT22;39655;53.210;5.768;2022-12-29T01:36:21;9.70;97.00
53748;DHT22;39655;53.210;5.768;2022-12-29T01:38:47;9.60;97.00
53748;DHT22;39655;53.210;5.768;2022-12-29T01:41:13;9.60;97.00
53748;DHT22;39655;53.210;5.768;2022-12-29T01:48:57;9.70;97.10
53748;DHT22;39655;53.210;5.768;2022-12-29T01:51:26;9.70;97.10
53748;DHT22;39655;53.210;5.768;2022-12-29T01:53:54;9.70;97.20
53748;DHT22;39655;53.210;5.768;2022-12-29T01:56:22;9.70;97.30
53748;DHT22;39655;53.210;5.768;2022-12-29T01:59:00;9.60;97.20
53748;DHT22;39655;53.210;5.768;2022-12-29T02:01:26;9.70;97.30
53748;DHT22;39655;53.210;5.768;2022-12-29T02:03:52;9.60;97.40
53748;DHT22;39655;53.210;5.768;2022-12-29T02:06:23;9.60;97.30
53748;DHT22;39655;53.210;5.768;2022-12-29T02:08:52;9.60;97.30
53748;DHT22;39655;53.210;5.768;2022-12-29T02:11:19;9.60;97.30
53748;DHT22;39655;53.210;5.768;2022-12-29T02:13:47;9.60;97.30
53748;DHT22;39655;53.210;5.768;2022-12-29T02:30:27;9.50;97.30
53748;DHT22;39655;53.210;5.768;2022-12-29T02:36:38;9.50;97.30
53748;DHT22;39655;53.210;5.768;2022-12-29T02:38:56;9.50;97.20
53748;DHT22;39655;53.210;5.768;2022-12-29T02:41:48;9.50;97.00
53748;DHT22;39655;53.210;5.768;2022-12-29T02:44:27;9.50;96.90
53748;DHT22;39655;53.210;5.768;2022-12-29T02:49:55;9.50;96.90
53748;DHT22;39655;53.210;5.768;2022-12-29T02:52:30;9.50;96.90
53748;DHT22;39655;53.210;5.768;2022-12-29T02:54:58;9.50;96.90
53748;DHT22;39655;53.210;5.768;2022-12-29T03:00:00;9.50;96.80
53748;DHT22;39655;53.210;5.768;2022-12-29T03:10:59;9.30;96.40
53748;DHT22;39655;53.210;5.768;2022-12-29T03:16:24;9.20;96.60
53748;DHT22;39655;53.210;5.768;2022-12-29T03:19:04;9.10;96.60
53748;DHT22;39655;53.210;5.768;2022-12-29T03:21:46;9.10;96.70
53748;DHT22;39655;53.210;5.768;2022-12-29T03:24:37;9.10;96.50
53748;DHT22;39655;53.210;5.768;2022-12-29T03:27:06;9.10;96.30
53748;DHT22;39655;53.210;5.768;2022-12-29T03:29:38;9.10;96.10
53748;DHT22;39655;53.210;5.768;2022-12-29T03:32:07;9.20;95.60
53748;DHT22;39655;53.210;5.768;2022-12-29T03:34:34;9.20;95.60
53748;DHT22;39655;53.210;5.768;2022-12-29T03:37:13;9.20;95.40
53748;DHT22;39655;53.210;5.768;2022-12-29T03:39:40;9.20;95.20
53748;DHT22;39655;53.210;5.768;2022-12-29T03:42:11;9.20;95.00
53748;DHT22;39655;53.210;5.768;2022-12-29T03:44:40;9.20;94.90
53748;DHT22;39655;53.210;5.768;2022-12-29T03:47:07;9.20;94.90
53748;DHT22;39655;53.210;5.768;2022-12-29T03:49:33;9.20;94.80
53748;DHT22;39655;53.210;5.768;2022-12-29T03:51:59;9.10;94.60
53748;DHT22;39655;53.210;5.768;2022-12-29T03:54:25;9.10;94.50
53748;DHT22;39655;53.210;5.768;2022-12-29T03:56:51;9.10;94.40
53748;DHT22;39655;53.210;5.768;2022-12-29T03:59:17;9.10;94.30
53748;DHT22;39655;53.210;5.768;2022-12-29T04:01:43;9.10;94.30
53748;DHT22;39655;53.210;5.768;2022-12-29T04:04:08;9.10;94.30
53748;DHT22;39655;53.210;5.768;2022-12-29T04:06:35;9.00;94.40
53748;DHT22;39655;53.210;5.768;2022-12-29T04:09:00;9.00;94.20
53748;DHT22;39655;53.210;5.768;2022-12-29T04:11:26;9.00;94.00
53748;DHT22;39655;53.210;5.768;2022-12-29T04:13:52;9.10;93.70
53748;DHT22;39655;53.210;5.768;2022-12-29T04:16:18;9.10;93.60
53748;DHT22;39655;53.210;5.768;2022-12-29T04:18:43;9.10;93.30
53748;DHT22;39655;53.210;5.768;2022-12-29T04:21:09;9.00;93.20
53748;DHT22;39655;53.210;5.768;2022-12-29T04:23:37;9.00;93.10
53748;DHT22;39655;53.210;5.768;2022-12-29T04:26:04;9.00;92.90
53748;DHT22;39655;53.210;5.768;2022-12-29T04:28:32;8.90;93.00
53748;DHT22;39655;53.210;5.768;2022-12-29T04:30:59;8.90;92.90
53748;DHT22;39655;53.210;5.768;2022-12-29T04:33:25;8.90;93.10
53748;DHT22;39655;53.210;5.768;2022-12-29T04:35:51;8.90;93.30
53748;DHT22;39655;53.210;5.768;2022-12-29T04:38:19;8.80;93.30
53748;DHT22;39655;53.210;5.768;2022-12-29T04:40:46;8.80;93.30
53748;DHT22;39655;53.210;5.768;2022-12-29T04:43:12;8.90;93.30
53748;DHT22;39655;53.210;5.768;2022-12-29T04:45:42;8.90;93.30
53748;DHT22;39655;53.210;5.768;2022-12-29T04:48:08;8.90;93.40
53748;DHT22;39655;53.210;5.768;2022-12-29T04:50:37;8.90;93.50
53748;DHT22;39655;53.210;5.768;2022-12-29T04:53:03;8.90;93.50
53748;DHT22;39655;53.210;5.768;2022-12-29T04:55:29;8.90;93.50
53748;DHT22;39655;53.210;5.768;2022-12-29T04:57:55;8.90;93.40
53748;DHT22;39655;53.210;5.768;2022-12-29T05:00:21;8.90;93.20
53748;DHT22;39655;53.210;5.768;2022-12-29T05:02:46;8.90;93.20
53748;DHT22;39655;53.210;5.768;2022-12-29T05:05:12;9.00;93.00
53748;DHT22;39655;53.210;5.768;2022-12-29T05:07:38;9.00;93.10
53748;DHT22;39655;53.210;5.768;2022-12-29T05:10:04;9.00;93.00
53748;DHT22;39655;53.210;5.768;2022-12-29T05:12:32;9.00;93.20
53748;DHT22;39655;53.210;5.768;2022-12-29T05:14:58;9.00;93.30
53748;DHT22;39655;53.210;5.768;2022-12-29T05:17:23;9.00;93.40
53748;DHT22;39655;53.210;5.768;2022-12-29T05:19:49;9.00;93.50
53748;DHT22;39655;53.210;5.768;2022-12-29T05:22:15;9.00;93.70
53748;DHT22;39655;53.210;5.768;2022-12-29T05:24:41;9.00;93.70
53748;DHT22;39655;53.210;5.768;2022-12-29T05:27:07;9.00;93.50
53748;DHT22;39655;53.210;5.768;2022-12-29T05:29:32;9.00;93.30
53748;DHT22;39655;53.210;5.768;2022-12-29T05:31:58;9.10;93.20
53748;DHT22;39655;53.210;5.768;2022-12-29T05:34:24;9.10;93.10
53748;DHT22;39655;53.210;5.768;2022-12-29T05:36:50;9.10;93.00
53748;DHT22;39655;53.210;5.768;2022-12-29T05:39:15;9.10;92.90
53748;DHT22;39655;53.210;5.768;2022-12-29T05:41:41;9.00;92.90
53748;DHT22;39655;53.210;5.768;2022-12-29T05:44:07;9.10;92.80
53748;DHT22;39655;53.210;5.768;2022-12-29T05:46:32;9.10;92.70
53748;DHT22;39655;53.210;5.768;2022-12-29T05:48:58;9.10;92.60
53748;DHT22;39655;53.210;5.768;2022-12-29T05:51:24;9.10;92.60
53748;DHT22;39655;53.210;5.768;2022-12-29T05:53:49;9.10;92.70
53748;DHT22;39655;53.210;5.768;2022-12-29T05:56:16;9.10;92.20
53748;DHT22;39655;53.210;5.768;2022-12-29T05:58:41;9.10;92.30
53748;DHT22;39655;53.210;5.768;2022-12-29T06:01:07;9.20;91.70
53748;DHT22;39655;53.210;5.768;2022-12-29T06:03:33;9.20;91.50
53748;DHT22;39655;53.210;5.768;2022-12-29T06:05:59;9.20;91.50
53748;DHT22;39655;53.210;5.768;2022-12-29T06:08:24;9.10;91.30
53748;DHT22;39655;53.210;5.768;2022-12-29T06:10:50;9.10;90.90
53748;DHT22;39655;53.210;5.768;2022-12-29T06:13:16;9.10;90.80
53748;DHT22;39655;53.210;5.768;2022-12-29T06:15:42;9.10;90.60
53748;DHT22;39655;53.210;5.768;2022-12-29T06:18:08;9.10;90.80
53748;DHT22;39655;53.210;5.768;2022-12-29T06:20:33;9.10;90.80
53748;DHT22;39655;53.210;5.768;2022-12-29T06:22:59;8.90;91.00
53748;DHT22;39655;53.210;5.768;2022-12-29T06:25:25;8.90;91.20
53748;DHT22;39655;53.210;5.768;2022-12-29T06:27:51;8.90;91.50
53748;DHT22;39655;53.210;5.768;2022-12-29T06:30:16;8.90;91.60
53748;DHT22;39655;53.210;5.768;2022-12-29T06:32:43;8.90;91.90
53748;DHT22;39655;53.210;5.768;2022-12-29T06:35:09;8.90;92.00
53748;DHT22;39655;53.210;5.768;2022-12-29T06:37:35;8.90;92.30
53748;DHT22;39655;53.210;5.768;2022-12-29T06:40:01;8.80;92.30
53748;DHT22;39655;53.210;5.768;2022-12-29T06:42:27;8.90;92.30
53748;DHT22;39655;53.210;5.768;2022-12-29T06:44:53;8.80;92.30
53748;DHT22;39655;53.210;5.768;2022-12-29T06:47:19;8.90;92.30
53748;DHT22;39655;53.210;5.768;2022-12-29T06:49:44;8.90;92.20
53748;DHT22;39655;53.210;5.768;2022-12-29T06:52:11;8.90;92.20
53748;DHT22;39655;53.210;5.768;2022-12-29T06:54:39;8.90;92.10
53748;DHT22;39655;53.210;5.768;2022-12-29T06:57:05;8.90;91.90
53748;DHT22;39655;53.210;5.768;2022-12-29T06:59:30;8.90;91.80
53748;DHT22;39655;53.210;5.768;2022-12-29T07:01:56;8.90;91.70
53748;DHT22;39655;53.210;5.768;2022-12-29T07:04:22;8.90;91.60
53748;DHT22;39655;53.210;5.768;2022-12-29T07:06:47;8.90;91.60
53748;DHT22;39655;53.210;5.768;2022-12-29T07:09:16;8.90;91.70
53748;DHT22;39655;53.210;5.768;2022-12-29T07:11:42;8.90;91.70
53748;DHT22;39655;53.210;5.768;2022-12-29T07:14:07;8.90;91.60
53748;DHT22;39655;53.210;5.768;2022-12-29T07:16:33;8.90;91.50
53748;DHT22;39655;53.210;5.768;2022-12-29T07:19:02;8.90;91.60
53748;DHT22;39655;53.210;5.768;2022-12-29T07:21:28;8.90;91.50
53748;DHT22;39655;53.210;5.768;2022-12-29T07:23:54;9.00;91.30
53748;DHT22;39655;53.210;5.768;2022-12-29T07:26:21;9.00;91.10
53748;DHT22;39655;53.210;5.768;2022-12-29T07:28:47;9.00;91.10
53748;DHT22;39655;53.210;5.768;2022-12-29T07:31:21;9.10;90.90
53748;DHT22;39655;53.210;5.768;2022-12-29T07:33:47;9.10;91.00
53748;DHT22;39655;53.210;5.768;2022-12-29T07:36:14;9.10;91.00
53748;DHT22;39655;53.210;5.768;2022-12-29T07:38:42;9.10;90.90
53748;DHT22;39655;53.210;5.768;2022-12-29T07:41:08;9.10;90.90
53748;DHT22;39655;53.210;5.768;2022-12-29T07:43:41;9.10;90.70
53748;DHT22;39655;53.210;5.768;2022-12-29T07:46:06;9.10;90.70
53748;DHT22;39655;53.210;5.768;2022-12-29T07:48:37;9.10;90.50
53748;DHT22;39655;53.210;5.768;2022-12-29T07:51:12;9.10;90.20
53748;DHT22;39655;53.210;5.768;2022-12-29T07:53:38;9.10;90.20
53748;DHT22;39655;53.210;5.768;2022-12-29T07:56:04;9.10;90.20
53748;DHT22;39655;53.210;5.768;2022-12-29T07:58:29;9.10;90.30
53748;DHT22;39655;53.210;5.768;2022-12-29T08:00:56;9.20;90.50
53748;DHT22;39655;53.210;5.768;2022-12-29T08:03:23;9.20;90.50
53748;DHT22;39655;53.210;5.768;2022-12-29T08:05:50;9.20;90.50
53748;DHT22;39655;53.210;5.768;2022-12-29T08:08:16;9.20;90.40
53748;DHT22;39655;53.210;5.768;2022-12-29T08:10:41;9.10;90.20
53748;DHT22;39655;53.210;5.768;2022-12-29T08:13:09;9.10;90.10
53748;DHT22;39655;53.210;5.768;2022-12-29T08:15:38;9.20;90.00
53748;DHT22;39655;53.210;5.768;2022-12-29T08:18:04;9.20;89.90
53748;DHT22;39655;53.210;5.768;2022-12-29T08:20:29;9.20;89.50
53748;DHT22;39655;53.210;5.768;2022-12-29T08:22:55;9.20;89.50
53748;DHT22;39655;53.210;5.768;2022-12-29T08:25:21;9.20;89.50
53748;DHT22;39655;53.210;5.768;2022-12-29T08:27:47;9.20;89.80
53748;DHT22;39655;53.210;5.768;2022-12-29T08:30:13;9.20;90.10
53748;DHT22;39655;53.210;5.768;2022-12-29T08:32:39;9.20;90.40
53748;DHT22;39655;53.210;5.768;2022-12-29T08:35:04;9.10;90.80
53748;DHT22;39655;53.210;5.768;2022-12-29T08:37:33;9.10;91.10
53748;DHT22;39655;53.210;5.768;2022-12-29T08:39:59;9.10;91.40
53748;DHT22;39655;53.210;5.768;2022-12-29T08:42:31;9.10;91.30
53748;DHT22;39655;53.210;5.768;2022-12-29T08:44:58;9.10;91.20
53748;DHT22;39655;53.210;5.768;2022-12-29T08:47:25;9.10;91.30
53748;DHT22;39655;53.210;5.768;2022-12-29T08:49:51;9.20;91.10
53748;DHT22;39655;53.210;5.768;2022-12-29T08:52:20;9.20;90.90
53748;DHT22;39655;53.210;5.768;2022-12-29T08:54:45;9.20;90.90
53748;DHT22;39655;53.210;5.768;2022-12-29T08:57:11;9.20;91.20
53748;DHT22;39655;53.210;5.768;2022-12-29T08:59:37;9.20;91.20
53748;DHT22;39655;53.210;5.768;2022-12-29T09:02:02;9.20;91.40
53748;DHT22;39655;53.210;5.768;2022-12-29T09:04:31;9.20;92.10
53748;DHT22;39655;53.210;5.768;2022-12-29T09:06:56;9.10;92.20
53748;DHT22;39655;53.210;5.768;2022-12-29T09:09:33;9.10;92.50
53748;DHT22;39655;53.210;5.768;2022-12-29T09:12:16;9.10;92.70
53748;DHT22;39655;53.210;5.768;2022-12-29T09:14:45;9.10;92.70
53748;DHT22;39655;53.210;5.768;2022-12-29T09:17:25;9.10;93.00
53748;DHT22;39655;53.210;5.768;2022-12-29T09:20:35;9.10;93.40
53748;DHT22;39655;53.210;5.768;2022-12-29T09:23:01;9.00;93.80
53748;DHT22;39655;53.210;5.768;2022-12-29T09:25:30;9.00;94.00
53748;DHT22;39655;53.210;5.768;2022-12-29T09:27:56;9.00;94.00
53748;DHT22;39655;53.210;5.768;2022-12-29T09:30:22;9.00;94.10
53748;DHT22;39655;53.210;5.768;2022-12-29T09:32:49;9.00;94.20
53748;DHT22;39655;53.210;5.768;2022-12-29T09:35:15;9.00;94.20
53748;DHT22;39655;53.210;5.768;2022-12-29T09:37:42;9.00;94.20
53748;DHT22;39655;53.210;5.768;2022-12-29T09:40:22;8.90;94.50
53748;DHT22;39655;53.210;5.768;2022-12-29T09:43:10;8.90;94.90
53748;DHT22;39655;53.210;5.768;2022-12-29T09:46:17;8.90;95.20
53748;DHT22;39655;53.210;5.768;2022-12-29T09:51:36;8.80;95.50
53748;DHT22;39655;53.210;5.768;2022-12-29T09:55:05;8.80;96.00
53748;DHT22;39655;53.210;5.768;2022-12-29T09:57:27;8.70;96.40
53748;DHT22;39655;53.210;5.768;2022-12-29T10:00:16;8.50;96.50
53748;DHT22;39655;53.210;5.768;2022-12-29T10:03:01;8.40;96.80
53748;DHT22;39655;53.210;5.768;2022-12-29T10:05:48;8.40;96.80
53748;DHT22;39655;53.210;5.768;2022-12-29T10:10:56;8.50;96.90
53748;DHT22;39655;53.210;5.768;2022-12-29T10:13:55;8.50;97.10
53748;DHT22;39655;53.210;5.768;2022-12-29T10:16:52;8.50;97.00
53748;DHT22;39655;53.210;5.768;2022-12-29T10:24:38;8.60;97.10
53748;DHT22;39655;53.210;5.768;2022-12-29T10:27:10;8.60;96.90
53748;DHT22;39655;53.210;5.768;2022-12-29T10:29:40;8.60;96.80
53748;DHT22;39655;53.210;5.768;2022-12-29T10:32:29;8.60;96.60
53748;DHT22;39655;53.210;5.768;2022-12-29T10:35:20;8.70;96.30
53748;DHT22;39655;53.210;5.768;2022-12-29T10:37:52;8.60;95.80
53748;DHT22;39655;53.210;5.768;2022-12-29T10:40:38;8.60;95.80
53748;DHT22;39655;53.210;5.768;2022-12-29T10:43:37;8.60;95.30
53748;DHT22;39655;53.210;5.768;2022-12-29T10:46:12;8.60;95.00
53748;DHT22;39655;53.210;5.768;2022-12-29T10:48:38;8.60;94.70
53748;DHT22;39655;53.210;5.768;2022-12-29T10:51:06;8.70;94.10
53748;DHT22;39655;53.210;5.768;2022-12-29T10:53:46;8.70;94.10
53748;DHT22;39655;53.210;5.768;2022-12-29T10:58:58;8.70;93.60
53748;DHT22;39655;53.210;5.768;2022-12-29T11:01:36;8.70;93.20
53748;DHT22;39655;53.210;5.768;2022-12-29T11:04:22;8.80;93.40
53748;DHT22;39655;53.210;5.768;2022-12-29T11:06:51;8.80;93.30
53748;DHT22;39655;53.210;5.768;2022-12-29T11:09:24;8.80;92.80
53748;DHT22;39655;53.210;5.768;2022-12-29T11:11:55;8.80;93.10
53748;DHT22;39655;53.210;5.768;2022-12-29T11:14:29;8.90;92.60
53748;DHT22;39655;53.210;5.768;2022-12-29T11:17:17;8.80;92.50
53748;DHT22;39655;53.210;5.768;2022-12-29T11:19:43;8.90;92.60
53748;DHT22;39655;53.210;5.768;2022-12-29T11:22:23;8.80;92.40
53748;DHT22;39655;53.210;5.768;2022-12-29T11:24:50;8.80;92.30
53748;DHT22;39655;53.210;5.768;2022-12-29T11:27:22;8.70;92.20
53748;DHT22;39655;53.210;5.768;2022-12-29T11:29:50;8.60;92.40
53748;DHT22;39655;53.210;5.768;2022-12-29T11:32:25;8.60;92.30
53748;DHT22;39655;53.210;5.768;2022-12-29T11:34:51;8.60;92.30
53748;DHT22;39655;53.210;5.768;2022-12-29T11:37:46;8.50;91.90
53748;DHT22;39655;53.210;5.768;2022-12-29T11:40:21;8.50;92.00
53748;DHT22;39655;53.210;5.768;2022-12-29T11:43:21;8.50;92.50
53748;DHT22;39655;53.210;5.768;2022-12-29T11:45:48;8.60;92.40
53748;DHT22;39655;53.210;5.768;2022-12-29T11:48:20;8.60;91.70
53748;DHT22;39655;53.210;5.768;2022-12-29T11:50:57;8.70;91.00
53748;DHT22;39655;53.210;5.768;2022-12-29T11:53:28;8.70;91.10
53748;DHT22;39655;53.210;5.768;2022-12-29T11:56:04;8.80;90.60
53748;DHT22;39655;53.210;5.768;2022-12-29T11:58:40;8.80;90.80
53748;DHT22;39655;53.210;5.768;2022-12-29T12:04:02;8.90;90.40
53748;DHT22;39655;53.210;5.768;2022-12-29T12:06:29;9.00;90.30
53748;DHT22;39655;53.210;5.768;2022-12-29T12:09:14;9.00;90.00
53748;DHT22;39655;53.210;5.768;2022-12-29T12:11:43;9.00;89.40
53748;DHT22;39655;53.210;5.768;2022-12-29T12:14:30;9.10;89.20
53748;DHT22;39655;53.210;5.768;2022-12-29T12:17:12;9.10;89.40
53748;DHT22;39655;53.210;5.768;2022-12-29T12:19:47;9.10;89.50
53748;DHT22;39655;53.210;5.768;2022-12-29T12:22:37;9.10;89.20
53748;DHT22;39655;53.210;5.768;2022-12-29T12:25:14;9.10;89.40
53748;DHT22;39655;53.210;5.768;2022-12-29T12:28:05;9.10;89.40
53748;DHT22;39655;53.210;5.768;2022-12-29T12:30:45;9.20;88.70
53748;DHT22;39655;53.210;5.768;2022-12-29T12:33:30;9.10;89.10
53748;DHT22;39655;53.210;5.768;2022-12-29T12:36:13;9.20;89.20
53748;DHT22;39655;53.210;5.768;2022-12-29T12:44:00;9.20;89.80
53748;DHT22;39655;53.210;5.768;2022-12-29T12:49:24;9.20;89.50
53748;DHT22;39655;53.210;5.768;2022-12-29T12:52:49;9.30;89.40
53748;DHT22;39655;53.210;5.768;2022-12-29T13:04:12;9.20;89.40
53748;DHT22;39655;53.210;5.768;2022-12-29T13:07:04;9.20;89.10
53748;DHT22;39655;53.210;5.768;2022-12-29T13:16:00;9.10;89.20
53748;DHT22;39655;53.210;5.768;2022-12-29T13:18:42;9.10;89.20
53748;DHT22;39655;53.210;5.768;2022-12-29T13:21:24;9.10;89.30
53748;DHT22;39655;53.210;5.768;2022-12-29T13:24:10;9.10;89.30
53748;DHT22;39655;53.210;5.768;2022-12-29T13:29:34;9.10;89.70
53748;DHT22;39655;53.210;5.768;2022-12-29T13:35:01;9.10;89.50
53748;DHT22;39655;53.210;5.768;2022-12-29T13:37:31;9.00;89.90
53748;DHT22;39655;53.210;5.768;2022-12-29T13:40:04;9.00;90.00
53748;DHT22;39655;53.210;5.768;2022-12-29T13:42:35;9.00;89.90
53748;DHT22;39655;53.210;5.768;2022-12-29T13:45:18;9.00;89.70
53748;DHT22;39655;53.210;5.768;2022-12-29T13:47:54;9.00;89.90
53748;DHT22;39655;53.210;5.768;2022-12-29T13:50:26;9.00;89.90
53748;DHT22;39655;53.210;5.768;2022-12-29T13:53:08;9.00;89.70
53748;DHT22;39655;53.210;5.768;2022-12-29T13:55:53;8.90;89.80
53748;DHT22;39655;53.210;5.768;2022-12-29T13:58:23;9.00;89.90
53748;DHT22;39655;53.210;5.768;2022-12-29T14:06:19;8.90;89.90
53748;DHT22;39655;53.210;5.768;2022-12-29T14:08:46;8.90;89.70
53748;DHT22;39655;53.210;5.768;2022-12-29T14:11:15;8.80;89.80
53748;DHT22;39655;53.210;5.768;2022-12-29T14:13:44;8.80;89.90
53748;DHT22;39655;53.210;5.768;2022-12-29T14:16:29;8.70;89.90
53748;DHT22;39655;53.210;5.768;2022-12-29T14:19:03;8.70;90.10
53748;DHT22;39655;53.210;5.768;2022-12-29T14:21:30;8.70;90.00
53748;DHT22;39655;53.210;5.768;2022-12-29T14:29:48;8.60;90.00
53748;DHT22;39655;53.210;5.768;2022-12-29T14:34:59;8.50;90.00
53748;DHT22;39655;53.210;5.768;2022-12-29T14:40:16;8.50;90.20
53748;DHT22;39655;53.210;5.768;2022-12-29T14:42:49;8.40;90.20
53748;DHT22;39655;53.210;5.768;2022-12-29T14:47:45;8.40;90.20
53748;DHT22;39655;53.210;5.768;2022-12-29T14:50:39;8.40;90.40
53748;DHT22;39655;53.210;5.768;2022-12-29T14:53:09;8.40;90.40
53748;DHT22;39655;53.210;5.768;2022-12-29T14:55:55;8.40;90.60
53748;DHT22;39655;53.210;5.768;2022-12-29T14:58:29;8.40;90.70
53748;DHT22;39655;53.210;5.768;2022-12-29T15:00:57;8.30;90.90
53748;DHT22;39655;53.210;5.768;2022-12-29T15:03:25;8.40;91.10
53748;DHT22;39655;53.210;5.768;2022-12-29T15:05:59;8.40;91.20
53748;DHT22;39655;53.210;5.768;2022-12-29T15:16:55;8.40;91.80
53748;DHT22;39655;53.210;5.768;2022-12-29T15:19:22;8.30;91.80
53748;DHT22;39655;53.210;5.768;2022-12-29T15:21:48;8.40;91.90
53748;DHT22;39655;53.210;5.768;2022-12-29T15:24:14;8.40;91.80
53748;DHT22;39655;53.210;5.768;2022-12-29T15:26:45;8.40;91.80
53748;DHT22;39655;53.210;5.768;2022-12-29T15:29:31;8.40;91.90
53748;DHT22;39655;53.210;5.768;2022-12-29T15:32:10;8.40;92.00
53748;DHT22;39655;53.210;5.768;2022-12-29T15:34:41;8.40;92.00
53748;DHT22;39655;53.210;5.768;2022-12-29T15:37:08;8.30;92.00
53748;DHT22;39655;53.210;5.768;2022-12-29T15:39:34;8.40;92.00
53748;DHT22;39655;53.210;5.768;2022-12-29T15:42:16;8.40;92.00
53748;DHT22;39655;53.210;5.768;2022-12-29T15:44:46;8.40;92.10
53748;DHT22;39655;53.210;5.768;2022-12-29T15:49:44;8.40;92.10
53748;DHT22;39655;53.210;5.768;2022-12-29T15:52:10;8.40;92.10
53748;DHT22;39655;53.210;5.768;2022-12-29T15:54:38;8.40;92.20
53748;DHT22;39655;53.210;5.768;2022-12-29T15:57:26;8.40;92.20
53748;DHT22;39655;53.210;5.768;2022-12-29T15:59:52;8.20;91.40
53748;DHT22;39655;53.210;5.768;2022-12-29T16:02:20;8.20;91.50
53748;DHT22;39655;53.210;5.768;2022-12-29T16:04:48;8.10;91.60
53748;DHT22;39655;53.210;5.768;2022-12-29T16:07:31;8.10;91.70
53748;DHT22;39655;53.210;5.768;2022-12-29T16:10:00;8.10;92.20
53748;DHT22;39655;53.210;5.768;2022-12-29T16:12:31;8.10;92.30
53748;DHT22;39655;53.210;5.768;2022-12-29T16:15:02;8.10;92.50
53748;DHT22;39655;53.210;5.768;2022-12-29T16:17:31;8.10;92.50
53748;DHT22;39655;53.210;5.768;2022-12-29T16:20:14;8.10;92.70
53748;DHT22;39655;53.210;5.768;2022-12-29T16:22:42;8.00;92.70
53748;DHT22;39655;53.210;5.768;2022-12-29T16:25:15;8.00;92.70
53748;DHT22;39655;53.210;5.768;2022-12-29T16:27:43;7.90;92.70
53748;DHT22;39655;53.210;5.768;2022-12-29T16:30:28;7.90;92.70
53748;DHT22;39655;53.210;5.768;2022-12-29T16:32:57;7.90;92.70
53748;DHT22;39655;53.210;5.768;2022-12-29T16:35:25;7.80;92.60
53748;DHT22;39655;53.210;5.768;2022-12-29T16:40:37;7.70;92.40
53748;DHT22;39655;53.210;5.768;2022-12-29T16:43:04;7.60;92.50
53748;DHT22;39655;53.210;5.768;2022-12-29T16:50:37;7.50;93.00
53748;DHT22;39655;53.210;5.768;2022-12-29T16:53:04;7.50;93.20
53748;DHT22;39655;53.210;5.768;2022-12-29T16:55:31;7.50;93.50
53748;DHT22;39655;53.210;5.768;2022-12-29T16:57:58;7.50;93.60
53748;DHT22;39655;53.210;5.768;2022-12-29T17:00:26;7.50;93.90
53748;DHT22;39655;53.210;5.768;2022-12-29T17:02:58;7.60;94.10
53748;DHT22;39655;53.210;5.768;2022-12-29T17:05:24;7.60;94.40
53748;DHT22;39655;53.210;5.768;2022-12-29T17:07:50;7.60;94.50
53748;DHT22;39655;53.210;5.768;2022-12-29T17:10:20;7.60;94.50
53748;DHT22;39655;53.210;5.768;2022-12-29T17:12:47;7.60;94.60
53748;DHT22;39655;53.210;5.768;2022-12-29T17:15:26;7.60;94.70
53748;DHT22;39655;53.210;5.768;2022-12-29T17:17:54;7.70;94.70
53748;DHT22;39655;53.210;5.768;2022-12-29T17:20:25;7.70;94.60
53748;DHT22;39655;53.210;5.768;2022-12-29T17:22:54;7.80;94.40
53748;DHT22;39655;53.210;5.768;2022-12-29T17:30:25;7.90;93.90
53748;DHT22;39655;53.210;5.768;2022-12-29T17:32:57;7.90;93.80
53748;DHT22;39655;53.210;5.768;2022-12-29T17:35:24;7.90;93.70
53748;DHT22;39655;53.210;5.768;2022-12-29T17:37:52;7.80;93.70
53748;DHT22;39655;53.210;5.768;2022-12-29T17:40:29;7.80;93.40
53748;DHT22;39655;53.210;5.768;2022-12-29T17:42:59;7.80;93.30
53748;DHT22;39655;53.210;5.768;2022-12-29T17:45:30;7.80;93.30
53748;DHT22;39655;53.210;5.768;2022-12-29T17:48:04;7.80;93.10
53748;DHT22;39655;53.210;5.768;2022-12-29T17:50:34;7.80;93.00
53748;DHT22;39655;53.210;5.768;2022-12-29T17:53:05;7.80;92.80
53748;DHT22;39655;53.210;5.768;2022-12-29T17:55:32;7.80;92.50
53748;DHT22;39655;53.210;5.768;2022-12-29T17:57:58;7.80;92.30
53748;DHT22;39655;53.210;5.768;2022-12-29T18:00:26;7.90;91.90
53748;DHT22;39655;53.210;5.768;2022-12-29T18:03:02;7.90;91.80
53748;DHT22;39655;53.210;5.768;2022-12-29T18:05:30;7.90;91.70
53748;DHT22;39655;53.210;5.768;2022-12-29T18:07:57;7.90;91.50
53748;DHT22;39655;53.210;5.768;2022-12-29T18:10:25;7.80;91.20
53748;DHT22;39655;53.210;5.768;2022-12-29T18:12:53;7.80;91.00
53748;DHT22;39655;53.210;5.768;2022-12-29T18:15:25;7.80;90.90
53748;DHT22;39655;53.210;5.768;2022-12-29T18:20:23;7.80;90.50